createdAt,value
2018-03-30T00:00:16.039Z,-2.19
2018-03-30T00:02:44.190Z,-2.22
2018-03-30T00:05:13.661Z,-2.23
2018-03-30T00:07:42.071Z,-2.22
2018-03-30T00:10:10.553Z,-2.23
2018-03-30T00:12:38.238Z,-2.26
2018-03-30T00:15:05.873Z,-2.26
2018-03-30T00:17:34.073Z,-2.28
2018-03-30T00:20:02.358Z,-2.29
2018-03-30T00:22:30.599Z,-2.30
2018-03-30T00:24:58.671Z,-2.30
2018-03-30T00:27:26.280Z,-2.31
2018-03-30T00:29:54.854Z,-2.31
2018-03-30T00:32:22.415Z,-2.33
2018-03-30T00:34:50.094Z,-2.34
2018-03-30T00:37:17.808Z,-2.34
2018-03-30T00:39:45.930Z,-2.35
2018-03-30T00:42:14.676Z,-2.36
2018-03-30T00:44:42.840Z,-2.35
2018-03-30T00:47:10.535Z,-2.37
2018-03-30T00:49:39.048Z,-2.39
2018-03-30T00:52:06.689Z,-2.41
2018-03-30T00:54:34.343Z,-2.40
2018-03-30T00:57:02.044Z,-2.40
2018-03-30T00:59:30.333Z,-2.40
2018-03-30T01:01:58.718Z,-2.42
2018-03-30T01:04:27.021Z,-2.43
2018-03-30T01:06:55.664Z,-2.44
2018-03-30T01:09:24.130Z,-2.43
2018-03-30T01:11:51.827Z,-2.45
2018-03-30T01:14:20.145Z,-2.45
2018-03-30T01:16:48.289Z,-2.45
2018-03-30T01:19:17.764Z,-2.45
2018-03-30T01:21:45.858Z,-2.46
2018-03-30T01:24:14.325Z,-2.49
2018-03-30T01:26:42.193Z,-2.49
2018-03-30T01:29:10.676Z,-2.47
2018-03-30T01:31:38.312Z,-2.48
2018-03-30T01:34:06.026Z,-2.48
2018-03-30T01:36:33.768Z,-2.51
2018-03-30T01:39:01.384Z,-2.52
2018-03-30T01:41:29.098Z,-2.52
2018-03-30T01:43:56.761Z,-2.51
2018-03-30T01:46:24.563Z,-2.51
2018-03-30T01:48:52.257Z,-2.53
2018-03-30T01:51:20.877Z,-2.54
2018-03-30T01:53:48.574Z,-2.55
2018-03-30T01:56:16.791Z,-2.57
2018-03-30T01:58:45.387Z,-2.59
2018-03-30T02:01:14.116Z,-2.59
2018-03-30T02:03:44.133Z,-2.60
2018-03-30T02:06:13.486Z,-2.59
2018-03-30T02:08:43.232Z,-2.63
2018-03-30T02:11:12.570Z,-2.63
2018-03-30T02:13:40.800Z,-2.63
2018-03-30T02:16:08.539Z,-2.62
2018-03-30T02:18:36.723Z,-2.62
2018-03-30T02:21:04.372Z,-2.62
2018-03-30T02:23:32.649Z,-2.62
2018-03-30T02:26:00.388Z,-2.63
2018-03-30T02:28:27.993Z,-2.65
2018-03-30T02:30:56.354Z,-2.68
2018-03-30T02:33:24.156Z,-2.71
2018-03-30T02:35:51.982Z,-2.73
2018-03-30T02:38:20.679Z,-2.73
2018-03-30T02:40:48.329Z,-2.73
2018-03-30T02:43:15.923Z,-2.75
2018-03-30T02:45:44.009Z,-2.78
2018-03-30T02:48:13.670Z,-2.78
2018-03-30T02:50:41.977Z,-2.79
2018-03-30T02:53:09.639Z,-2.78
2018-03-30T02:55:37.302Z,-2.80
2018-03-30T02:58:05.063Z,-2.84
2018-03-30T03:00:34.086Z,-2.83
2018-03-30T03:03:02.592Z,-2.83
2018-03-30T03:05:31.245Z,-2.85
2018-03-30T03:07:59.785Z,-2.86
2018-03-30T03:10:27.613Z,-2.90
2018-03-30T03:12:56.011Z,-2.90
2018-03-30T03:15:23.730Z,-2.91
2018-03-30T03:17:52.194Z,-2.96
2018-03-30T03:20:20.650Z,-2.99
2018-03-30T03:22:48.823Z,-3.02
2018-03-30T03:25:16.470Z,-3.05
2018-03-30T03:27:44.309Z,-3.06
2018-03-30T03:30:14.023Z,-3.06
2018-03-30T03:32:43.401Z,-3.08
2018-03-30T03:35:11.101Z,-3.09
2018-03-30T03:37:38.742Z,-3.09
2018-03-30T03:40:06.400Z,-3.11
2018-03-30T03:42:33.990Z,-3.12
2018-03-30T03:45:01.624Z,-3.16
2018-03-30T03:47:29.202Z,-3.21
2018-03-30T03:49:57.404Z,-3.23
2018-03-30T03:52:25.034Z,-3.28
2018-03-30T03:54:52.752Z,-3.31
2018-03-30T03:57:20.413Z,-3.33
2018-03-30T03:59:48.612Z,-3.39
2018-03-30T04:02:17.278Z,-3.43
2018-03-30T04:04:45.549Z,-3.46
2018-03-30T04:07:13.493Z,-3.50
2018-03-30T04:09:43.372Z,-3.51
2018-03-30T04:12:12.553Z,-3.50
2018-03-30T04:14:40.195Z,-3.54
2018-03-30T04:17:08.445Z,-3.54
2018-03-30T04:19:36.784Z,-3.56
2018-03-30T04:22:05.436Z,-3.57
2018-03-30T04:24:33.132Z,-3.58
2018-03-30T04:27:00.790Z,-3.59
2018-03-30T04:29:29.216Z,-3.59
2018-03-30T04:31:57.833Z,-3.62
2018-03-30T04:34:25.420Z,-3.61
2018-03-30T04:36:54.128Z,-3.62
2018-03-30T04:39:21.846Z,-3.60
2018-03-30T04:41:49.480Z,-3.59
2018-03-30T04:44:17.168Z,-3.60
2018-03-30T04:46:44.945Z,-3.58
2018-03-30T04:49:13.088Z,-3.58
2018-03-30T04:51:41.373Z,-3.61
2018-03-30T04:54:09.070Z,-3.63
2018-03-30T04:56:36.689Z,-3.62
2018-03-30T04:59:05.447Z,-3.60
2018-03-30T05:01:33.836Z,-3.57
2018-03-30T05:04:01.507Z,-3.55
2018-03-30T05:06:29.727Z,-3.55
2018-03-30T05:08:57.990Z,-3.53
2018-03-30T05:11:25.662Z,-3.54
2018-03-30T05:13:54.380Z,-3.52
2018-03-30T05:16:21.972Z,-3.50
2018-03-30T05:18:50.292Z,-3.47
2018-03-30T05:21:18.013Z,-3.46
2018-03-30T05:23:46.105Z,-3.43
2018-03-30T05:26:14.053Z,-3.37
2018-03-30T05:28:43.595Z,-3.33
2018-03-30T05:31:13.171Z,-3.27
2018-03-30T05:33:40.751Z,-3.23
2018-03-30T05:36:08.374Z,-3.18
2018-03-30T05:38:35.977Z,-3.12
2018-03-30T05:41:03.613Z,-3.06
2018-03-30T05:43:31.267Z,-2.99
2018-03-30T05:45:59.066Z,-2.93
2018-03-30T05:48:26.839Z,-2.88
2018-03-30T05:50:55.295Z,-2.80
2018-03-30T05:53:23.184Z,-2.71
2018-03-30T05:55:51.463Z,-2.63
2018-03-30T05:58:19.695Z,-2.60
2018-03-30T06:00:48.578Z,-2.56
2018-03-30T06:03:16.393Z,-2.49
2018-03-30T06:05:45.055Z,-2.41
2018-03-30T06:08:13.753Z,-2.31
2018-03-30T06:13:40.424Z,-2.10
2018-03-30T06:16:08.088Z,-2.02
2018-03-30T06:18:36.249Z,-1.95
2018-03-30T06:21:04.077Z,-1.89
2018-03-30T06:23:32.584Z,-1.85
2018-03-30T06:26:00.270Z,-1.81
2018-03-30T06:28:28.185Z,-1.72
2018-03-30T06:30:56.513Z,-1.66
2018-03-30T06:33:24.380Z,-1.60
2018-03-30T06:35:52.021Z,-1.53
2018-03-30T06:38:19.812Z,-1.47
2018-03-30T06:40:47.699Z,-1.38
2018-03-30T06:43:15.335Z,-1.41
2018-03-30T06:45:44.153Z,-1.35
2018-03-30T06:48:12.635Z,-1.20
2018-03-30T06:50:41.937Z,-1.09
2018-03-30T06:53:09.666Z,-0.98
2018-03-30T06:55:37.994Z,-0.94
2018-03-30T06:58:05.580Z,-0.90
2018-03-30T07:00:33.984Z,-0.86
2018-03-30T07:03:01.687Z,-0.88
2018-03-30T07:05:30.118Z,-0.83
2018-03-30T07:07:58.305Z,-0.79
2018-03-30T07:10:25.901Z,-0.77
2018-03-30T07:12:55.467Z,-0.75
2018-03-30T07:15:23.128Z,-0.72
2018-03-30T07:17:51.395Z,-0.63
2018-03-30T07:20:19.449Z,-0.63
2018-03-30T07:22:47.792Z,-0.55
2018-03-30T07:25:15.415Z,-0.45
2018-03-30T07:27:44.057Z,-0.34
2018-03-30T07:30:12.889Z,-0.22
2018-03-30T07:32:40.524Z,-0.16
2018-03-30T07:35:08.128Z,-0.04
2018-03-30T07:37:35.794Z,0.02
2018-03-30T07:40:03.435Z,0.06
2018-03-30T07:42:31.074Z,0.08
2018-03-30T07:44:58.720Z,0.23
2018-03-30T07:47:26.364Z,0.43
2018-03-30T07:49:55.038Z,0.58
2018-03-30T07:52:23.488Z,0.67
2018-03-30T07:54:51.162Z,0.76
2018-03-30T07:57:18.752Z,0.73
2018-03-30T07:59:47.183Z,0.74
2018-03-30T08:02:15.724Z,0.79
2018-03-30T08:04:44.250Z,0.89
2018-03-30T08:07:12.473Z,1.04
2018-03-30T08:09:40.874Z,1.14
2018-03-30T08:12:09.239Z,1.21
2018-03-30T08:14:36.765Z,1.27
2018-03-30T08:17:04.892Z,1.32
2018-03-30T08:19:33.244Z,1.48
2018-03-30T08:22:01.511Z,1.63
2018-03-30T08:24:29.149Z,1.73
2018-03-30T08:26:56.692Z,1.81
2018-03-30T08:29:25.029Z,1.86
2018-03-30T08:31:52.575Z,1.99
2018-03-30T08:34:20.126Z,1.98
2018-03-30T08:36:47.816Z,1.93
2018-03-30T08:39:15.404Z,1.90
2018-03-30T08:41:43.322Z,1.99
2018-03-30T08:44:11.005Z,2.10
2018-03-30T08:46:38.565Z,2.20
2018-03-30T08:49:07.088Z,2.36
2018-03-30T08:51:35.167Z,2.39
2018-03-30T08:54:02.682Z,2.48
2018-03-30T08:56:30.414Z,2.52
2018-03-30T08:58:58.905Z,2.55
2018-03-30T09:01:26.916Z,2.58
2018-03-30T09:03:54.465Z,2.64
2018-03-30T09:06:22.508Z,2.68
2018-03-30T09:08:50.963Z,2.83
2018-03-30T09:11:18.496Z,2.99
2018-03-30T09:13:46.545Z,3.16
2018-03-30T09:16:14.143Z,3.24
2018-03-30T09:18:42.444Z,3.38
2018-03-30T09:21:10.725Z,3.41
2018-03-30T09:23:38.775Z,3.42
2018-03-30T09:26:07.590Z,3.48
2018-03-30T09:28:35.150Z,3.49
2018-03-30T09:31:03.367Z,3.54
2018-03-30T09:33:30.908Z,3.51
2018-03-30T09:35:58.452Z,3.47
2018-03-30T09:38:26.022Z,3.47
2018-03-30T09:40:53.707Z,3.50
2018-03-30T09:43:21.317Z,3.51
2018-03-30T09:45:48.976Z,3.59
2018-03-30T09:48:17.100Z,3.69
2018-03-30T09:50:45.233Z,3.73
2018-03-30T09:53:13.174Z,3.75
2018-03-30T09:55:40.737Z,3.67
2018-03-30T09:58:08.301Z,3.74
2018-03-30T10:00:37.671Z,3.80
2018-03-30T10:03:05.216Z,3.87
2018-03-30T10:05:33.377Z,3.91
2018-03-30T10:08:01.705Z,3.90
2018-03-30T10:10:29.283Z,3.92
2018-03-30T10:12:57.557Z,3.96
2018-03-30T10:15:25.293Z,3.96
2018-03-30T10:17:53.424Z,4.02
2018-03-30T10:20:21.977Z,4.08
2018-03-30T10:22:49.950Z,4.09
2018-03-30T10:25:17.506Z,4.14
2018-03-30T10:27:45.046Z,4.26
2018-03-30T10:30:14.004Z,4.20
2018-03-30T10:32:42.773Z,4.18
2018-03-30T10:35:10.378Z,4.17
2018-03-30T10:37:37.914Z,4.24
2018-03-30T10:40:05.485Z,4.37
2018-03-30T10:42:33.006Z,4.63
2018-03-30T10:45:01.300Z,4.87
2018-03-30T10:47:28.831Z,4.95
2018-03-30T10:49:57.411Z,5.15
2018-03-30T10:52:25.932Z,5.22
2018-03-30T10:54:53.471Z,5.24
2018-03-30T10:57:21.140Z,5.28
2018-03-30T10:59:49.340Z,5.30
2018-03-30T11:02:17.020Z,5.35
2018-03-30T11:04:45.297Z,5.34
2018-03-30T11:07:13.337Z,5.26
2018-03-30T11:09:41.679Z,5.23
2018-03-30T11:12:10.197Z,5.32
2018-03-30T11:14:37.730Z,5.44
2018-03-30T11:17:05.782Z,5.38
2018-03-30T11:19:39.892Z,5.28
2018-03-30T11:22:08.104Z,5.35
2018-03-30T11:24:35.693Z,5.36
2018-03-30T11:27:03.257Z,5.60
2018-03-30T11:29:31.408Z,5.66
2018-03-30T11:31:59.773Z,5.54
2018-03-30T11:34:27.431Z,5.48
2018-03-30T11:36:55.096Z,5.41
2018-03-30T11:39:23.084Z,5.34
2018-03-30T11:41:51.416Z,5.23
2018-03-30T11:44:18.934Z,5.09
2018-03-30T11:46:46.456Z,5.15
2018-03-30T11:49:14.015Z,5.32
2018-03-30T11:51:42.817Z,5.33
2018-03-30T11:54:10.368Z,5.35
2018-03-30T11:56:37.943Z,5.47
2018-03-30T11:59:05.968Z,5.57
2018-03-30T12:01:34.355Z,5.53
2018-03-30T12:04:01.896Z,5.48
2018-03-30T12:06:30.068Z,5.51
2018-03-30T12:08:58.506Z,5.56
2018-03-30T12:11:26.042Z,5.71
2018-03-30T12:13:54.036Z,5.94
2018-03-30T12:16:21.591Z,6.05
2018-03-30T12:18:49.796Z,6.14
2018-03-30T12:21:17.815Z,6.20
2018-03-30T12:23:46.248Z,6.26
2018-03-30T12:26:13.924Z,6.39
2018-03-30T12:28:41.512Z,6.53
2018-03-30T12:31:09.816Z,6.77
2018-03-30T12:33:37.343Z,6.95
2018-03-30T12:36:04.907Z,6.94
2018-03-30T12:38:32.484Z,6.86
2018-03-30T12:41:00.840Z,6.82
2018-03-30T12:43:28.440Z,6.70
2018-03-30T12:45:56.302Z,6.75
2018-03-30T12:48:23.964Z,6.84
2018-03-30T12:50:53.215Z,6.87
2018-03-30T12:53:20.748Z,6.56
2018-03-30T12:55:48.295Z,6.39
2018-03-30T12:58:15.887Z,6.48
2018-03-30T13:00:44.119Z,6.37
2018-03-30T13:03:11.959Z,6.21
2018-03-30T13:05:40.952Z,6.15
2018-03-30T13:08:09.390Z,6.15
2018-03-30T13:10:36.980Z,6.26
2018-03-30T13:13:05.032Z,6.50
2018-03-30T13:15:32.570Z,6.73
2018-03-30T13:18:00.723Z,6.80
2018-03-30T13:20:28.961Z,6.87
2018-03-30T13:22:57.012Z,6.88
2018-03-30T13:25:25.006Z,6.86
2018-03-30T13:27:52.560Z,6.79
2018-03-30T13:30:20.508Z,6.86
2018-03-30T13:32:48.039Z,6.80
2018-03-30T13:35:15.594Z,6.61
2018-03-30T13:37:44.779Z,6.60
2018-03-30T13:40:12.432Z,6.69
2018-03-30T13:42:39.969Z,6.79
2018-03-30T13:45:07.544Z,6.82
2018-03-30T13:47:35.063Z,6.87
2018-03-30T13:50:04.456Z,6.79
2018-03-30T13:52:43.053Z,6.65
2018-03-30T13:55:11.724Z,6.50
2018-03-30T13:57:46.852Z,6.36
2018-03-30T14:00:22.931Z,6.25
2018-03-30T14:03:04.940Z,6.25
2018-03-30T14:05:35.036Z,6.39
2018-03-30T14:11:27.674Z,6.47
2018-03-30T14:13:55.964Z,6.47
2018-03-30T14:16:24.564Z,6.40
2018-03-30T14:18:57.276Z,6.48
2018-03-30T14:21:25.832Z,6.55
2018-03-30T14:23:56.167Z,6.63
2018-03-30T14:26:56.256Z,6.61
2018-03-30T14:29:29.454Z,6.57
2018-03-30T14:32:01.790Z,6.53
2018-03-30T14:37:51.045Z,6.36
2018-03-30T14:40:22.419Z,6.22
2018-03-30T14:42:49.985Z,6.13
2018-03-30T14:45:22.148Z,6.24
2018-03-30T14:47:50.338Z,6.32
2018-03-30T14:53:36.116Z,6.53
2018-03-30T14:59:14.868Z,6.68
2018-03-30T15:01:46.662Z,6.80
2018-03-30T15:04:17.915Z,6.96
2018-03-30T15:06:49.928Z,7.12
2018-03-30T15:09:34.772Z,7.19
2018-03-30T15:12:13.968Z,7.24
2018-03-30T15:14:47.489Z,7.30
2018-03-30T15:17:32.220Z,7.38
2018-03-30T15:20:18.130Z,7.36
2018-03-30T15:23:01.102Z,7.31
2018-03-30T15:25:34.700Z,7.24
2018-03-30T15:28:14.007Z,7.23
2018-03-30T15:30:50.735Z,7.20
2018-03-30T15:33:19.484Z,7.14
2018-03-30T15:35:49.970Z,7.13
2018-03-30T15:38:17.521Z,7.17
2018-03-30T15:40:45.775Z,7.17
2018-03-30T15:43:15.751Z,7.18
2018-03-30T15:45:55.089Z,7.17
2018-03-30T15:48:22.653Z,7.16
2018-03-30T15:50:52.425Z,7.13
2018-03-30T15:53:19.414Z,7.02
2018-03-30T15:55:47.877Z,6.89
2018-03-30T15:58:15.476Z,6.82
2018-03-30T16:00:44.875Z,6.82
2018-03-30T16:03:12.951Z,6.76
2018-03-30T16:05:41.603Z,6.71
2018-03-30T16:08:09.605Z,6.64
2018-03-30T16:10:43.635Z,6.66
2018-03-30T16:13:11.821Z,6.63
2018-03-30T16:15:39.523Z,6.50
2018-03-30T16:18:07.919Z,6.39
2018-03-30T16:20:34.927Z,6.28
2018-03-30T16:23:01.905Z,6.24
2018-03-30T16:25:28.973Z,6.15
2018-03-30T16:27:56.018Z,6.06
2018-03-30T16:30:24.455Z,5.93
2018-03-30T16:32:51.444Z,5.81
2018-03-30T16:35:18.448Z,5.73
2018-03-30T16:37:45.480Z,5.69
2018-03-30T16:40:12.581Z,5.63
2018-03-30T16:42:39.688Z,5.59
2018-03-30T16:45:06.752Z,5.50
2018-03-30T16:47:34.349Z,5.43
2018-03-30T16:50:02.079Z,5.35
2018-03-30T16:52:29.076Z,5.25
2018-03-30T16:54:56.061Z,5.11
2018-03-30T16:57:23.072Z,5.04
2018-03-30T16:59:50.530Z,4.95
2018-03-30T17:02:17.519Z,4.87
2018-03-30T17:04:45.619Z,4.86
2018-03-30T17:07:12.607Z,4.83
2018-03-30T17:09:39.910Z,4.77
2018-03-30T17:12:07.573Z,4.71
2018-03-30T17:14:34.568Z,4.64
2018-03-30T17:17:02.291Z,4.55
2018-03-30T17:19:29.961Z,4.40
2018-03-30T17:21:56.940Z,4.27
2018-03-30T17:24:24.162Z,4.19
2018-03-30T17:26:51.215Z,4.15
2018-03-30T17:29:19.233Z,4.09
2018-03-30T17:31:46.237Z,4.04
2018-03-30T17:34:13.425Z,3.93
2018-03-30T17:36:40.692Z,3.85
2018-03-30T17:39:07.698Z,3.76
2018-03-30T17:41:34.701Z,3.68
2018-03-30T17:44:01.767Z,3.63
2018-03-30T17:46:28.872Z,3.55
2018-03-30T17:48:55.860Z,3.50
2018-03-30T17:51:24.039Z,3.44
2018-03-30T17:53:51.024Z,3.40
2018-03-30T17:56:18.054Z,3.34
2018-03-30T17:58:45.643Z,3.28
2018-03-30T18:01:13.455Z,3.19
2018-03-30T18:03:40.484Z,3.13
2018-03-30T18:06:08.083Z,3.09
2018-03-30T18:08:35.744Z,3.02
2018-03-30T18:11:02.765Z,2.94
2018-03-30T18:13:30.547Z,2.85
2018-03-30T18:15:57.532Z,2.74
2018-03-30T18:18:25.033Z,2.65
2018-03-30T18:20:52.030Z,2.58
2018-03-30T18:23:19.018Z,2.49
2018-03-30T18:25:46.699Z,2.38
2018-03-30T18:28:13.742Z,2.29
2018-03-30T18:30:41.423Z,2.18
2018-03-30T18:33:09.339Z,2.11
2018-03-30T18:35:36.451Z,2.04
2018-03-30T18:38:03.486Z,1.99
2018-03-30T18:40:30.597Z,1.97
2018-03-30T18:42:57.628Z,1.91
2018-03-30T18:45:24.914Z,1.84
2018-03-30T18:47:52.122Z,1.78
2018-03-30T18:50:19.701Z,1.72
2018-03-30T18:52:46.688Z,1.66
2018-03-30T18:55:13.713Z,1.61
2018-03-30T18:57:40.749Z,1.57
2018-03-30T19:00:08.722Z,1.50
2018-03-30T19:02:35.766Z,1.45
2018-03-30T19:05:03.465Z,1.41
2018-03-30T19:07:30.554Z,1.38
2018-03-30T19:09:58.850Z,1.35
2018-03-30T19:12:26.590Z,1.33
2018-03-30T19:14:53.643Z,1.30
2018-03-30T19:17:22.062Z,1.25
2018-03-30T19:19:49.905Z,1.21
2018-03-30T19:22:17.766Z,1.15
2018-03-30T19:24:44.763Z,1.13
2018-03-30T19:27:12.048Z,1.08
2018-03-30T19:29:39.869Z,1.05
2018-03-30T19:32:06.883Z,1.00
2018-03-30T19:34:34.464Z,0.97
2018-03-30T19:37:01.456Z,0.93
2018-03-30T19:39:29.976Z,0.92
2018-03-30T19:41:57.063Z,0.90
2018-03-30T19:44:24.200Z,0.87
2018-03-30T19:46:51.220Z,0.85
2018-03-30T19:49:18.253Z,0.84
2018-03-30T19:51:46.154Z,0.82
2018-03-30T19:54:13.231Z,0.80
2018-03-30T19:56:40.225Z,0.79
2018-03-30T19:59:07.934Z,0.77
2018-03-30T20:01:35.900Z,0.75
2018-03-30T20:04:02.910Z,0.74
2018-03-30T20:06:30.604Z,0.72
2018-03-30T20:08:58.065Z,0.70
2018-03-30T20:11:25.069Z,0.66
2018-03-30T20:13:52.718Z,0.63
2018-03-30T20:16:19.713Z,0.59
2018-03-30T20:18:47.484Z,0.53
2018-03-30T20:21:15.192Z,0.49
2018-03-30T20:23:42.528Z,0.44
2018-03-30T20:26:09.603Z,0.38
2018-03-30T20:28:36.653Z,0.34
2018-03-30T20:31:04.136Z,0.31
2018-03-30T20:33:31.144Z,0.28
2018-03-30T20:35:58.177Z,0.26
2018-03-30T20:38:25.242Z,0.23
2018-03-30T20:40:52.345Z,0.21
2018-03-30T20:43:19.444Z,0.21
2018-03-30T20:45:46.642Z,0.21
2018-03-30T20:48:13.673Z,0.22
2018-03-30T20:50:41.558Z,0.24
2018-03-30T20:53:08.639Z,0.26
2018-03-30T20:55:35.686Z,0.28
2018-03-30T20:58:02.936Z,0.29
2018-03-30T21:00:30.420Z,0.29
2018-03-30T21:02:57.463Z,0.32
2018-03-30T21:05:25.269Z,0.37
2018-03-30T21:07:52.270Z,0.40
2018-03-30T21:10:19.799Z,0.43
2018-03-30T21:12:47.428Z,0.47
2018-03-30T21:15:14.480Z,0.48
2018-03-30T21:17:42.433Z,0.52
2018-03-30T21:20:10.308Z,0.56
2018-03-30T21:22:37.352Z,0.59
2018-03-30T21:25:04.564Z,0.60
2018-03-30T21:27:31.765Z,0.63
2018-03-30T21:29:59.499Z,0.67
2018-03-30T21:32:26.496Z,0.70
2018-03-30T21:34:54.132Z,0.70
2018-03-30T21:37:21.143Z,0.73
2018-03-30T21:39:48.938Z,0.76
2018-03-30T21:42:16.138Z,0.80
2018-03-30T21:44:43.302Z,0.83
2018-03-30T21:47:10.397Z,0.85
2018-03-30T21:49:38.272Z,0.88
2018-03-30T21:52:05.319Z,0.91
2018-03-30T21:54:32.334Z,0.95
2018-03-30T21:56:59.462Z,0.99
2018-03-30T21:59:27.048Z,1.00
2018-03-30T22:01:54.732Z,1.02
2018-03-30T22:04:21.783Z,1.02
2018-03-30T22:06:49.461Z,1.01
2018-03-30T22:09:17.125Z,1.04
2018-03-30T22:11:44.175Z,1.05
2018-03-30T22:14:12.163Z,1.05
2018-03-30T22:16:39.878Z,1.07
2018-03-30T22:19:07.575Z,1.10
2018-03-30T22:21:34.585Z,1.12
2018-03-30T22:24:01.614Z,1.14
2018-03-30T22:26:28.683Z,1.13
2018-03-30T22:28:55.750Z,1.12
2018-03-30T22:31:23.714Z,1.13
2018-03-30T22:33:50.775Z,1.13
2018-03-30T22:36:17.772Z,1.10
2018-03-30T22:38:44.868Z,1.08
2018-03-30T22:41:12.045Z,1.08
2018-03-30T22:43:39.069Z,1.10
2018-03-30T22:46:06.165Z,1.08
2018-03-30T22:48:33.184Z,1.08
2018-03-30T22:51:00.684Z,1.09
2018-03-30T22:53:27.688Z,1.08
2018-03-30T22:55:54.904Z,1.08
2018-03-30T22:58:23.401Z,1.09
2018-03-30T23:00:51.388Z,1.07
2018-03-30T23:03:18.479Z,1.05
2018-03-30T23:05:46.583Z,1.01
2018-03-30T23:08:14.230Z,0.99
2018-03-30T23:10:41.493Z,0.98
2018-03-30T23:13:09.187Z,0.97
2018-03-30T23:15:36.202Z,0.96
2018-03-30T23:18:03.978Z,0.97
2018-03-30T23:20:32.370Z,0.96
2018-03-30T23:22:59.893Z,0.97
2018-03-30T23:25:26.974Z,0.99
2018-03-30T23:27:54.011Z,1.00
2018-03-30T23:30:21.587Z,1.02
2018-03-30T23:32:48.606Z,1.05
2018-03-30T23:35:15.680Z,1.05
2018-03-30T23:37:42.928Z,1.04
2018-03-30T23:40:10.059Z,1.07
2018-03-30T23:42:37.163Z,1.08
2018-03-30T23:45:04.464Z,1.11
2018-03-30T23:47:32.239Z,1.12
2018-03-30T23:49:59.712Z,1.11
2018-03-30T23:52:26.716Z,1.09
2018-03-30T23:54:54.446Z,1.08
2018-03-30T23:57:21.477Z,1.07
2018-03-30T23:59:49.112Z,1.06
